createdAt,value
2018-11-21T00:02:13.239Z,97987.97
2018-11-21T00:04:44.512Z,97988.18
2018-11-21T00:07:15.814Z,97981.94
2018-11-21T00:09:47.084Z,97978.30
2018-11-21T00:12:18.407Z,97974.47
2018-11-21T00:14:49.772Z,97979.20
2018-11-21T00:17:21.094Z,97978.94
2018-11-21T00:19:52.340Z,97978.24
2018-11-21T00:22:23.580Z,97976.97
2018-11-21T00:24:54.836Z,97975.66
2018-11-21T00:27:26.062Z,97972.32
2018-11-21T00:29:57.376Z,97974.76
2018-11-21T00:32:28.895Z,97977.58
2018-11-21T00:35:00.188Z,97974.84
2018-11-21T00:37:31.408Z,97973.13
2018-11-21T00:40:02.731Z,97967.87
2018-11-21T00:42:33.936Z,97968.45
2018-11-21T00:45:05.247Z,97965.39
2018-11-21T00:47:36.475Z,97972.98
2018-11-21T00:50:08.336Z,97971.11
2018-11-21T00:52:39.668Z,97962.69
2018-11-21T00:55:10.894Z,97967.45
2018-11-21T00:57:42.193Z,97957.91
2018-11-21T01:00:13.961Z,97953.20
2018-11-21T01:02:45.254Z,97952.71
2018-11-21T01:05:16.516Z,97952.24
2018-11-21T01:07:47.751Z,97949.38
2018-11-21T01:10:19.091Z,97933.41
2018-11-21T01:12:50.278Z,97922.73
2018-11-21T01:15:21.509Z,97909.97
2018-11-21T01:17:52.739Z,97928.69
2018-11-21T01:20:24.093Z,97931.41
2018-11-21T01:22:55.358Z,97926.20
2018-11-21T01:25:26.604Z,97915.96
2018-11-21T01:27:57.927Z,97914.13
2018-11-21T01:30:29.236Z,97904.23
2018-11-21T01:33:00.572Z,97904.91
2018-11-21T01:35:31.978Z,97911.30
2018-11-21T01:38:03.300Z,97910.80
2018-11-21T01:40:34.467Z,97904.00
2018-11-21T01:43:05.876Z,97909.53
2018-11-21T01:45:37.158Z,97908.09
2018-11-21T01:48:08.467Z,97902.22
2018-11-21T01:50:39.625Z,97902.63
2018-11-21T01:53:10.938Z,97896.00
2018-11-21T01:55:42.206Z,97891.06
2018-11-21T01:58:13.576Z,97892.78
2018-11-21T02:00:44.916Z,97888.66
2018-11-21T02:03:16.273Z,97880.75
2018-11-21T02:05:47.415Z,97886.82
2018-11-21T02:08:18.674Z,97884.50
2018-11-21T02:10:50.006Z,97882.44
2018-11-21T02:13:21.361Z,97875.47
2018-11-21T02:15:52.639Z,97871.09
2018-11-21T02:18:23.820Z,97865.23
2018-11-21T02:20:55.156Z,97866.88
2018-11-21T02:23:26.402Z,97861.66
2018-11-21T02:25:57.777Z,97862.16
2018-11-21T02:28:29.585Z,97854.59
2018-11-21T02:31:00.793Z,97853.81
2018-11-21T02:33:32.055Z,97862.73
2018-11-21T02:36:03.306Z,97863.55
2018-11-21T02:38:34.599Z,97861.16
2018-11-21T02:41:05.811Z,97853.65
2018-11-21T02:43:37.165Z,97853.20
2018-11-21T02:46:08.464Z,97853.65
2018-11-21T02:48:39.713Z,97856.81
2018-11-21T02:51:10.876Z,97853.88
2018-11-21T02:53:42.147Z,97849.91
2018-11-21T02:56:13.316Z,97837.95
2018-11-21T02:58:44.582Z,97841.59
2018-11-21T03:01:15.824Z,97845.42
2018-11-21T03:03:47.156Z,97840.34
2018-11-21T03:06:18.451Z,97837.91
2018-11-21T03:08:49.709Z,97835.39
2018-11-21T03:11:21.105Z,97845.97
2018-11-21T03:13:52.321Z,97840.81
2018-11-21T03:16:23.675Z,97838.28
2018-11-21T03:18:55.028Z,97837.37
2018-11-21T03:21:26.402Z,97846.80
2018-11-21T03:23:57.723Z,97846.84
2018-11-21T03:26:29.493Z,97835.22
2018-11-21T03:29:00.772Z,97830.59
2018-11-21T03:31:32.044Z,97829.05
2018-11-21T03:34:03.357Z,97825.31
2018-11-21T03:36:34.694Z,97830.17
2018-11-21T03:39:08.158Z,97833.57
2018-11-21T03:41:39.833Z,97828.89
2018-11-21T03:44:19.756Z,97827.00
2018-11-21T03:46:51.153Z,97824.17
2018-11-21T03:49:22.486Z,97821.01
2018-11-21T03:51:53.833Z,97820.53
2018-11-21T03:54:25.184Z,97815.22
2018-11-21T03:56:56.469Z,97817.71
2018-11-21T03:59:27.766Z,97803.97
2018-11-21T04:01:59.200Z,97801.55
2018-11-21T04:04:30.456Z,97795.42
2018-11-21T04:07:01.753Z,97791.98
2018-11-21T04:09:33.086Z,97783.70
2018-11-21T04:12:04.350Z,97783.73
2018-11-21T04:14:35.749Z,97792.42
2018-11-21T04:17:07.064Z,97785.52
2018-11-21T04:19:38.389Z,97788.92
2018-11-21T04:22:09.601Z,97778.08
2018-11-21T04:24:40.913Z,97774.34
2018-11-21T04:27:12.177Z,97784.07
2018-11-21T04:29:43.456Z,97782.35
2018-11-21T04:32:14.741Z,97784.17
2018-11-21T04:34:46.024Z,97796.53
2018-11-21T04:37:17.247Z,97785.45
2018-11-21T04:39:48.580Z,97786.62
2018-11-21T04:42:19.738Z,97781.38
2018-11-21T04:44:51.019Z,97763.21
2018-11-21T04:47:22.234Z,97756.27
2018-11-21T04:49:53.499Z,97753.02
2018-11-21T04:52:24.656Z,97752.77
2018-11-21T04:54:56.023Z,97749.12
2018-11-21T04:57:27.221Z,97751.50
2018-11-21T04:59:58.531Z,97749.34
2018-11-21T05:02:29.763Z,97751.03
2018-11-21T05:05:01.005Z,97755.82
2018-11-21T05:07:32.327Z,97754.87
2018-11-21T05:10:03.552Z,97757.05
2018-11-21T05:12:34.899Z,97754.56
2018-11-21T05:15:06.374Z,97760.97
2018-11-21T05:17:37.743Z,97756.73
2018-11-21T05:20:08.965Z,97752.89
2018-11-21T05:22:40.733Z,97752.07
2018-11-21T05:25:12.386Z,97747.20
2018-11-21T05:27:43.657Z,97737.23
2018-11-21T05:30:14.978Z,97738.58
2018-11-21T05:32:46.308Z,97739.80
2018-11-21T05:35:17.537Z,97739.18
2018-11-21T05:37:48.854Z,97741.16
2018-11-21T05:40:20.172Z,97736.62
2018-11-21T05:42:51.537Z,97749.30
2018-11-21T05:45:22.914Z,97753.45
2018-11-21T05:47:54.178Z,97747.98
2018-11-21T05:50:25.433Z,97754.44
2018-11-21T05:52:56.766Z,97739.48
2018-11-21T05:55:27.981Z,97736.36
2018-11-21T05:57:59.269Z,97739.12
2018-11-21T06:00:30.565Z,97737.55
2018-11-21T06:03:01.972Z,97740.88
2018-11-21T06:05:33.169Z,97734.02
2018-11-21T06:08:04.451Z,97731.53
2018-11-21T06:10:35.717Z,97735.33
2018-11-21T06:13:07.001Z,97729.87
2018-11-21T06:15:38.329Z,97728.39
2018-11-21T06:18:09.553Z,97719.23
2018-11-21T06:20:40.822Z,97723.25
2018-11-21T06:23:12.091Z,97737.92
2018-11-21T06:25:43.399Z,97729.91
2018-11-21T06:28:14.546Z,97729.38
2018-11-21T06:30:46.322Z,97732.27
2018-11-21T06:33:17.576Z,97728.56
2018-11-21T06:35:48.866Z,97726.39
2018-11-21T06:38:20.037Z,97727.28
2018-11-21T06:40:51.337Z,97722.77
2018-11-21T06:43:22.589Z,97720.44
2018-11-21T06:45:53.948Z,97714.45
2018-11-21T06:48:25.185Z,97713.94
2018-11-21T06:50:56.387Z,97700.88
2018-11-21T06:53:27.769Z,97697.03
2018-11-21T06:55:59.040Z,97702.91
2018-11-21T06:58:30.298Z,97693.40
2018-11-21T07:01:01.595Z,97697.12
2018-11-21T07:03:32.865Z,97700.97
2018-11-21T07:06:04.039Z,97704.83
2018-11-21T07:08:35.296Z,97705.58
2018-11-21T07:11:06.629Z,97711.03
2018-11-21T07:13:37.929Z,97708.98
2018-11-21T07:16:09.232Z,97698.55
2018-11-21T07:18:40.936Z,97695.53
2018-11-21T07:21:12.354Z,97696.29
2018-11-21T07:23:43.709Z,97692.04
2018-11-21T07:26:15.027Z,97701.96
2018-11-21T07:28:46.247Z,97697.94
2018-11-21T07:31:17.550Z,97698.33
2018-11-21T07:33:48.792Z,97701.04
2018-11-21T07:36:20.099Z,97699.31
2018-11-21T07:38:51.712Z,97704.67
2018-11-21T07:41:22.978Z,97704.67
2018-11-21T07:43:54.268Z,97698.02
2018-11-21T07:46:25.599Z,97697.36
2018-11-21T07:48:56.899Z,97699.48
2018-11-21T07:51:28.113Z,97695.77
2018-11-21T07:53:59.403Z,97693.50
2018-11-21T07:57:08.169Z,97690.17
2018-11-21T07:59:39.515Z,97685.63
2018-11-21T08:02:14.543Z,97696.07
2018-11-21T08:05:04.343Z,97686.02
2018-11-21T08:07:54.154Z,97682.16
2018-11-21T08:10:43.957Z,97681.19
2018-11-21T08:13:33.731Z,97676.63
2018-11-21T08:16:23.589Z,97683.45
2018-11-21T08:19:13.379Z,97677.77
2018-11-21T08:22:03.172Z,97683.75
2018-11-21T08:24:46.402Z,97682.91
2018-11-21T08:27:36.230Z,97678.53
2018-11-21T08:30:07.770Z,97681.02
2018-11-21T08:32:39.103Z,97685.56
2018-11-21T08:35:10.322Z,97681.01
2018-11-21T08:37:41.720Z,97676.05
2018-11-21T08:40:13.045Z,97676.09
2018-11-21T08:42:44.607Z,97669.75
2018-11-21T08:45:15.897Z,97675.56
2018-11-21T08:47:47.253Z,97685.09
2018-11-21T08:50:18.565Z,97676.58
2018-11-21T08:52:49.949Z,97681.72
2018-11-21T08:55:21.172Z,97677.37
2018-11-21T08:57:55.001Z,97669.62
2018-11-21T09:00:26.397Z,97679.14
2018-11-21T09:02:57.797Z,97667.85
2018-11-21T09:05:29.066Z,97656.29
2018-11-21T09:08:00.274Z,97660.23
2018-11-21T09:13:01.840Z,97653.66
2018-11-21T09:15:33.089Z,97654.41
2018-11-21T09:18:04.430Z,97646.47
2018-11-21T09:20:35.681Z,97644.56
2018-11-21T09:23:06.991Z,97649.70
2018-11-21T09:25:38.138Z,97647.14
2018-11-21T09:28:09.442Z,97648.52
2018-11-21T09:30:40.744Z,97639.52
2018-11-21T09:33:12.081Z,97635.48
2018-11-21T09:35:43.450Z,97642.61
2018-11-21T09:38:14.821Z,97637.75
2018-11-21T09:43:34.718Z,97631.09
2018-11-21T09:46:06.160Z,97629.45
2018-11-21T09:48:37.427Z,97628.68
2018-11-21T09:51:08.848Z,97629.75
2018-11-21T09:53:40.137Z,97629.96
2018-11-21T09:56:11.381Z,97627.75
2018-11-21T09:58:42.695Z,97621.95
2018-11-21T10:01:51.516Z,97617.02
2018-11-21T10:04:22.818Z,97608.14
2018-11-21T10:06:54.116Z,97617.47
2018-11-21T10:09:28.342Z,97611.58
2018-11-21T10:11:59.648Z,97615.97
2018-11-21T10:14:30.971Z,97611.36
2018-11-21T10:17:02.197Z,97606.08
2018-11-21T10:19:33.530Z,97600.55
2018-11-21T10:22:04.776Z,97601.23
2018-11-21T10:24:36.063Z,97595.85
2018-11-21T10:27:07.491Z,97591.76
2018-11-21T10:29:38.734Z,97596.90
2018-11-21T10:32:09.969Z,97593.73
2018-11-21T10:34:41.222Z,97591.31
2018-11-21T10:37:12.482Z,97585.19
2018-11-21T10:39:43.819Z,97580.13
2018-11-21T10:42:15.055Z,97573.82
2018-11-21T10:44:46.341Z,97566.64
2018-11-21T10:47:17.677Z,97569.97
2018-11-21T10:49:48.844Z,97562.87
2018-11-21T10:52:20.176Z,97556.99
2018-11-21T10:54:51.413Z,97559.38
2018-11-21T10:57:22.772Z,97564.17
2018-11-21T10:59:54.095Z,97552.12
2018-11-21T11:02:43.820Z,97555.97
2018-11-21T11:05:33.635Z,97559.77
2018-11-21T11:08:23.407Z,97552.27
2018-11-21T11:11:13.173Z,97546.79
2018-11-21T11:14:02.956Z,97544.55
2018-11-21T11:16:52.769Z,97541.11
2018-11-21T11:19:42.647Z,97547.45
2018-11-21T11:22:32.464Z,97536.08
2018-11-21T11:25:22.211Z,97539.19
2018-11-21T11:28:14.643Z,97533.05
2018-11-21T11:31:01.926Z,97534.79
2018-11-21T11:33:51.789Z,97536.46
2018-11-21T11:36:41.486Z,97529.49
2018-11-21T11:39:31.236Z,97527.81
2018-11-21T11:42:20.957Z,97521.66
2018-11-21T11:45:14.399Z,97531.47
2018-11-21T11:48:00.582Z,97515.23
2018-11-21T11:50:55.252Z,97518.01
2018-11-21T11:53:45.030Z,97513.47
2018-11-21T11:56:34.777Z,97519.16
2018-11-21T11:59:24.754Z,97522.95
2018-11-21T12:02:14.525Z,97525.59
2018-11-21T12:05:04.337Z,97523.70
2018-11-21T12:07:54.183Z,97513.77
2018-11-21T12:10:43.895Z,97509.45
2018-11-21T12:13:33.704Z,97516.63
2018-11-21T12:16:23.521Z,97516.09
2018-11-21T12:19:08.714Z,97520.10
2018-11-21T12:21:58.539Z,97516.63
2018-11-21T12:24:48.266Z,97513.67
2018-11-21T12:27:38.104Z,97515.50
2018-11-21T12:30:29.512Z,97515.59
2018-11-21T12:33:19.373Z,97509.61
2018-11-21T12:36:09.427Z,97515.78
2018-11-21T12:38:59.226Z,97514.75
2018-11-21T12:41:49.074Z,97511.83
2018-11-21T12:44:38.895Z,97509.16
2018-11-21T12:47:28.667Z,97505.94
2018-11-21T12:50:18.467Z,97514.41
2018-11-21T12:53:08.289Z,97510.49
2018-11-21T12:55:58.137Z,97509.93
2018-11-21T12:58:47.947Z,97512.27
2018-11-21T13:01:37.789Z,97508.41
2018-11-21T13:04:27.568Z,97510.98
2018-11-21T13:07:15.733Z,97506.92
2018-11-21T13:10:05.422Z,97509.08
2018-11-21T13:12:55.268Z,97516.09
2018-11-21T13:15:43.437Z,97514.27
2018-11-21T13:18:30.338Z,97511.31
2018-11-21T13:21:20.100Z,97517.92
2018-11-21T13:24:09.878Z,97512.72
2018-11-21T13:26:59.818Z,97514.66
2018-11-21T13:29:49.578Z,97514.91
2018-11-21T13:32:39.359Z,97516.37
2018-11-21T13:35:29.179Z,97511.02
2018-11-21T13:38:23.282Z,97507.70
2018-11-21T13:41:08.739Z,97507.70
2018-11-21T13:43:58.538Z,97498.65
2018-11-21T13:46:48.388Z,97506.27
2018-11-21T13:49:38.131Z,97504.33
2018-11-21T13:52:27.916Z,97500.08
2018-11-21T13:55:00.808Z,97500.83
2018-11-21T13:57:32.721Z,97491.83
2018-11-21T14:00:04.247Z,97497.51
2018-11-21T14:02:35.667Z,97506.36
2018-11-21T14:05:25.707Z,97513.31
2018-11-21T14:07:57.737Z,97514.45
2018-11-21T14:10:28.998Z,97511.11
2018-11-21T14:13:00.445Z,97510.13
2018-11-21T14:15:32.839Z,97515.14
2018-11-21T14:18:03.082Z,97510.52
2018-11-21T14:20:34.313Z,97505.58
2018-11-21T14:23:05.696Z,97506.42
2018-11-21T14:25:36.979Z,97511.08
2018-11-21T14:28:08.309Z,97507.52
2018-11-21T14:30:39.482Z,97508.66
2018-11-21T14:33:10.813Z,97507.19
2018-11-21T14:35:42.031Z,97504.36
2018-11-21T14:38:13.343Z,97503.73
2018-11-21T14:40:44.585Z,97504.47
2018-11-21T14:43:16.172Z,97510.00
2018-11-21T14:45:47.410Z,97508.78
2018-11-21T14:48:18.814Z,97513.08
2018-11-21T14:50:50.159Z,97500.41
2018-11-21T14:53:33.027Z,97518.22
2018-11-21T14:56:04.338Z,97514.91
2018-11-21T14:58:35.615Z,97514.36
2018-11-21T15:01:06.975Z,97511.44
2018-11-21T15:03:38.346Z,97511.34
2018-11-21T15:06:09.823Z,97510.30
2018-11-21T15:08:41.272Z,97505.67
2018-11-21T15:11:12.559Z,97503.67
2018-11-21T15:13:43.747Z,97513.35
2018-11-21T15:16:15.190Z,97509.88
2018-11-21T15:18:46.438Z,97518.97
2018-11-21T15:21:17.739Z,97512.98
2018-11-21T15:23:49.008Z,97527.12
2018-11-21T15:26:20.768Z,97523.51
2018-11-21T15:28:52.097Z,97534.09
2018-11-21T15:31:23.466Z,97530.38
2018-11-21T15:33:54.716Z,97535.61
2018-11-21T15:36:26.030Z,97532.37
2018-11-21T15:38:57.200Z,97532.91
2018-11-21T15:41:28.481Z,97536.38
2018-11-21T15:43:59.671Z,97540.98
2018-11-21T15:46:30.950Z,97546.08
2018-11-21T15:49:02.220Z,97538.38
2018-11-21T15:51:33.869Z,97538.43
2018-11-21T15:54:05.250Z,97539.95
2018-11-21T15:56:36.867Z,97543.31
2018-11-21T15:59:08.464Z,97539.16
2018-11-21T16:01:39.788Z,97544.44
2018-11-21T16:04:11.043Z,97553.42
2018-11-21T16:06:42.365Z,97546.47
2018-11-21T16:09:13.801Z,97550.72
2018-11-21T16:11:45.174Z,97557.72
2018-11-21T16:14:16.392Z,97560.38
2018-11-21T16:16:47.661Z,97549.35
2018-11-21T16:19:18.972Z,97562.05
2018-11-21T16:21:50.381Z,97564.14
2018-11-21T16:24:21.630Z,97569.76
2018-11-21T16:26:52.929Z,97575.56
2018-11-21T16:29:24.159Z,97584.64
2018-11-21T16:31:55.933Z,97592.56
2018-11-21T16:34:27.261Z,97605.09
2018-11-21T16:36:58.669Z,97611.60
2018-11-21T16:39:30.051Z,97628.34
2018-11-21T16:42:01.421Z,97626.62
2018-11-21T16:44:32.777Z,97649.65
2018-11-21T16:47:04.045Z,97659.11
2018-11-21T16:49:35.523Z,97672.23
2018-11-21T16:52:07.576Z,97674.75
2018-11-21T16:54:38.884Z,97683.88
2018-11-21T16:57:10.166Z,97681.53
2018-11-21T16:59:41.532Z,97678.74
2018-11-21T17:02:12.834Z,97665.45
2018-11-21T17:04:44.083Z,97676.56
2018-11-21T17:07:15.374Z,97673.69
2018-11-21T17:09:49.148Z,97674.97
2018-11-21T17:12:20.635Z,97675.71
2018-11-21T17:14:51.896Z,97681.69
2018-11-21T17:17:23.168Z,97675.71
2018-11-21T17:19:54.338Z,97678.72
2018-11-21T17:22:26.178Z,97683.33
2018-11-21T17:24:56.761Z,97673.29
2018-11-21T17:27:28.120Z,97680.84
2018-11-21T17:29:59.305Z,97683.28
2018-11-21T17:32:30.594Z,97686.20
2018-11-21T17:35:01.844Z,97689.30
2018-11-21T17:37:33.229Z,97688.14
2018-11-21T17:40:04.486Z,97693.13
2018-11-21T17:42:35.667Z,97690.11
2018-11-21T17:45:07.686Z,97692.81
2018-11-21T17:47:38.933Z,97695.56
2018-11-21T17:50:13.236Z,97694.66
2018-11-21T17:52:44.784Z,97690.36
2018-11-21T17:55:17.592Z,97691.45
2018-11-21T17:57:48.911Z,97689.73
2018-11-21T18:00:38.864Z,97694.75
2018-11-21T18:03:10.203Z,97688.26
2018-11-21T18:05:42.308Z,97685.69
2018-11-21T18:08:13.551Z,97687.19
2018-11-21T18:10:44.788Z,97680.98
2018-11-21T18:13:16.157Z,97676.49
2018-11-21T18:15:47.425Z,97672.92
2018-11-21T18:18:18.740Z,97679.09
2018-11-21T18:20:50.083Z,97682.33
2018-11-21T18:23:21.261Z,97679.91
2018-11-21T18:25:52.551Z,97694.97
2018-11-21T18:28:23.829Z,97684.27
2018-11-21T18:30:55.139Z,97687.62
2018-11-21T18:33:26.461Z,97688.77
2018-11-21T18:35:57.733Z,97684.16
2018-11-21T18:38:29.106Z,97686.98
2018-11-21T18:41:00.346Z,97679.30
2018-11-21T18:43:31.698Z,97688.78
2018-11-21T18:46:02.965Z,97687.35
2018-11-21T18:48:34.320Z,97684.09
2018-11-21T18:51:05.502Z,97682.89
2018-11-21T18:53:36.869Z,97689.14
2018-11-21T18:56:45.646Z,97688.89
2018-11-21T18:59:54.446Z,97696.58
2018-11-21T19:02:25.826Z,97696.66
2018-11-21T19:04:57.224Z,97696.98
2018-11-21T19:07:28.544Z,97695.70
2018-11-21T19:09:59.790Z,97708.11
2018-11-21T19:12:31.153Z,97707.27
2018-11-21T19:15:02.464Z,97703.64
2018-11-21T19:17:33.929Z,97708.03
2018-11-21T19:20:05.572Z,97714.52
2018-11-21T19:22:37.016Z,97714.11
2018-11-21T19:25:09.396Z,97725.89
2018-11-21T19:27:41.263Z,97719.63
2018-11-21T19:30:14.729Z,97721.13
2018-11-21T19:32:46.070Z,97736.97
2018-11-21T19:35:17.502Z,97731.01
2018-11-21T19:37:48.828Z,97732.40
2018-11-21T19:40:20.281Z,97732.40
2018-11-21T19:42:51.460Z,97733.05
2018-11-21T19:45:22.825Z,97736.89
2018-11-21T19:47:54.214Z,97736.81
2018-11-21T19:50:25.598Z,97740.92
2018-11-21T19:52:57.113Z,97733.48
2018-11-21T19:55:29.948Z,97741.23
2018-11-21T19:58:01.274Z,97736.89
2018-11-21T20:00:33.836Z,97744.31
2018-11-21T20:03:05.112Z,97741.08
2018-11-21T20:05:36.625Z,97740.47
2018-11-21T20:08:07.923Z,97740.17
2018-11-21T20:10:39.147Z,97749.00
2018-11-21T20:13:10.447Z,97745.54
2018-11-21T20:15:41.740Z,97748.23
2018-11-21T20:18:12.996Z,97747.06
2018-11-21T20:20:44.297Z,97742.19
2018-11-21T20:23:15.510Z,97739.89
2018-11-21T20:25:46.824Z,97741.94
2018-11-21T20:28:18.034Z,97757.30
2018-11-21T20:30:49.310Z,97744.41
2018-11-21T20:33:20.523Z,97754.72
2018-11-21T20:35:51.898Z,97751.82
2018-11-21T20:38:23.103Z,97757.70
2018-11-21T20:40:54.495Z,97759.22
2018-11-21T20:46:09.705Z,97748.84
2018-11-21T20:48:41.152Z,97761.78
2018-11-21T20:51:29.899Z,97764.44
2018-11-21T20:54:01.143Z,97763.23
2018-11-21T20:56:32.453Z,97767.37
2018-11-21T20:59:03.842Z,97760.09
2018-11-21T21:01:35.306Z,97759.66
2018-11-21T21:04:06.729Z,97763.06
2018-11-21T21:06:38.015Z,97771.44
2018-11-21T21:09:14.960Z,97769.59
2018-11-21T21:11:46.176Z,97773.49
2018-11-21T21:14:17.523Z,97772.22
2018-11-21T21:16:48.842Z,97775.22
2018-11-21T21:19:20.225Z,97775.38
2018-11-21T21:21:51.483Z,97783.06
2018-11-21T21:24:22.728Z,97778.08
2018-11-21T21:26:54.072Z,97784.64
2018-11-21T21:29:25.361Z,97780.91
2018-11-21T21:31:56.713Z,97785.76
2018-11-21T21:34:27.941Z,97785.25
2018-11-21T21:36:59.230Z,97789.16
2018-11-21T21:39:30.556Z,97784.88
2018-11-21T21:42:01.911Z,97793.77
2018-11-21T21:44:33.146Z,97795.45
2018-11-21T21:47:04.460Z,97793.73
2018-11-21T21:49:35.775Z,97798.95
2018-11-21T21:52:07.021Z,97802.91
2018-11-21T21:54:38.311Z,97807.79
2018-11-21T21:57:09.559Z,97811.46
2018-11-21T21:59:40.849Z,97807.46
2018-11-21T22:02:12.205Z,97812.91
2018-11-21T22:04:43.481Z,97816.37
2018-11-21T22:07:14.795Z,97813.45
2018-11-21T22:12:17.333Z,97814.63
2018-11-21T22:14:48.567Z,97817.06
2018-11-21T22:17:19.836Z,97815.19
2018-11-21T22:19:51.035Z,97821.98
2018-11-21T22:22:22.317Z,97820.73
2018-11-21T22:24:53.568Z,97824.58
2018-11-21T22:27:24.907Z,97819.18
2018-11-21T22:29:56.208Z,97826.20
2018-11-21T22:32:27.568Z,97821.03
2018-11-21T22:34:58.744Z,97819.52
2018-11-21T22:37:30.863Z,97820.09
2018-11-21T22:40:01.249Z,97829.20
2018-11-21T22:42:32.568Z,97825.36
2018-11-21T22:45:03.729Z,97828.92
2018-11-21T22:47:35.079Z,97831.01
2018-11-21T22:50:06.518Z,97831.84
2018-11-21T22:52:37.867Z,97832.62
2018-11-21T22:55:10.418Z,97833.75
2018-11-21T22:57:42.237Z,97830.73
2018-11-21T23:00:15.677Z,97834.22
2018-11-21T23:02:46.926Z,97838.69
2018-11-21T23:05:18.595Z,97833.94
2018-11-21T23:07:49.918Z,97841.83
2018-11-21T23:10:27.750Z,97841.33
2018-11-21T23:12:59.128Z,97839.61
2018-11-21T23:15:30.473Z,97837.47
2018-11-21T23:18:01.748Z,97839.89
2018-11-21T23:20:33.067Z,97841.39
2018-11-21T23:23:04.498Z,97846.56
2018-11-21T23:25:35.920Z,97850.28
2018-11-21T23:28:09.207Z,97850.84
2018-11-21T23:30:40.535Z,97854.52
2018-11-21T23:33:11.762Z,97863.62
2018-11-21T23:35:43.119Z,97852.62
2018-11-21T23:38:14.403Z,97865.59
2018-11-21T23:40:45.736Z,97857.42
2018-11-21T23:43:17.025Z,97862.62
2018-11-21T23:45:48.395Z,97857.58
2018-11-21T23:48:19.615Z,97860.75
2018-11-21T23:50:50.918Z,97863.90
2018-11-21T23:53:22.146Z,97864.40
2018-11-21T23:55:53.401Z,97864.84
2018-11-21T23:58:24.716Z,97870.88
